Time;durP1;ratioP1;P1;durP2;ratioP2;P2;SDS_P1;SDS_P2;PMS_P1;PMS_P2;Temp;Humidity;BMP_temperature;BMP_pressure;BME280_temperature;BME280_humidity;BME280_pressure;Samples;Min_cycle;Max_cycle;Signal;HPM_P1;HPM_P2
2021/12/10 00:01:54;;;;;;;5.72;4.03;;;4.70;99.90;;;;;;5071715;28;20170;-46
2021/12/10 00:04:23;;;;;;;6.20;4.30;;;4.70;99.90;;;;;;5071762;28;20212;-46
2021/12/10 00:06:55;;;;;;;5.88;4.32;;;4.70;99.90;;;;;;5071671;28;20158;-46
2021/12/10 00:09:32;;;;;;;9.48;5.15;;;4.80;99.90;;;;;;5071530;28;20218;-46
2021/12/10 00:12:13;;;;;;;8.63;3.53;;;4.70;99.90;;;;;;5071713;28;20188;-45
2021/12/10 00:14:40;;;;;;;7.82;4.35;;;4.70;99.90;;;;;;5071901;28;20165;-46
2021/12/10 00:17:09;;;;;;;13.10;5.30;;;4.70;99.90;;;;;;5071700;28;20224;-45
2021/12/10 00:19:42;;;;;;;8.73;3.85;;;4.60;99.90;;;;;;5075008;28;20248;-46
2021/12/10 00:22:18;;;;;;;7.05;3.33;;;4.50;99.90;;;;;;5075893;28;20253;-45
2021/12/10 00:24:46;;;;;;;6.38;3.78;;;4.50;99.90;;;;;;5075852;28;20231;-46
2021/12/10 00:27:13;;;;;;;5.38;3.03;;;4.50;99.90;;;;;;5075676;28;20184;-45
2021/12/10 00:29:47;;;;;;;6.00;3.42;;;4.50;99.90;;;;;;5075768;28;20201;-46
2021/12/10 00:32:29;;;;;;;9.25;3.58;;;4.40;99.90;;;;;;5075331;28;20636;-45
2021/12/10 00:34:56;;;;;;;5.97;3.65;;;4.40;99.90;;;;;;5076019;28;20169;-45
2021/12/10 00:37:23;;;;;;;6.00;3.38;;;4.30;99.90;;;;;;5075401;28;20199;-46
2021/12/10 00:39:52;;;;;;;4.65;3.22;;;4.50;99.90;;;;;;5075453;28;20173;-45
2021/12/10 00:42:25;;;;;;;5.72;2.88;;;4.40;99.90;;;;;;5075538;28;20174;-45
2021/12/10 00:44:50;;;;;;;5.93;3.50;;;4.40;99.90;;;;;;5075265;28;20641;-45
2021/12/10 00:47:17;;;;;;;10.98;4.07;;;4.40;99.90;;;;;;5075269;28;20166;-45
2021/12/10 00:49:42;;;;;;;7.15;3.70;;;4.40;99.90;;;;;;5075035;28;20216;-45
2021/12/10 00:52:10;;;;;;;6.57;3.30;;;4.40;99.90;;;;;;5075124;28;20562;-46
2021/12/10 00:54:36;;;;;;;4.90;3.50;;;4.30;99.90;;;;;;5075032;28;20181;-46
2021/12/10 00:57:04;;;;;;;6.63;3.67;;;4.30;99.90;;;;;;5075113;28;20169;-45
2021/12/10 00:59:29;;;;;;;5.75;4.30;;;4.20;99.90;;;;;;5075110;28;20177;-46
2021/12/10 01:01:55;;;;;;;4.93;3.05;;;4.20;99.90;;;;;;5075311;28;20170;-45
2021/12/10 01:04:29;;;;;;;7.53;3.55;;;4.10;99.90;;;;;;5074750;28;20170;-46
2021/12/10 01:06:57;;;;;;;10.68;3.63;;;4.10;99.90;;;;;;5074980;28;20203;-45
2021/12/10 01:09:33;;;;;;;7.85;3.42;;;4.10;99.90;;;;;;5074896;28;20343;-45
2021/12/10 01:12:04;;;;;;;5.38;3.50;;;4.00;99.90;;;;;;5074793;28;20637;-45
2021/12/10 01:14:53;;;;;;;4.90;3.28;;;4.00;99.90;;;;;;5074826;28;20178;-46
2021/12/10 01:25:50;;;;;;;7.32;3.67;;;4.00;99.90;;;;;;5074783;28;20173;-45
2021/12/10 01:28:16;;;;;;;7.38;3.25;;;4.00;99.90;;;;;;5074614;28;20220;-47
2021/12/10 01:30:42;;;;;;;9.45;5.30;;;4.00;99.90;;;;;;5074024;28;20249;-45
2021/12/10 01:33:11;;;;;;;10.35;4.00;;;4.00;99.90;;;;;;5074471;28;20166;-45
2021/12/10 01:35:41;;;;;;;7.95;3.05;;;4.00;99.90;;;;;;5074395;28;20639;-46
2021/12/10 01:38:08;;;;;;;7.57;3.00;;;4.00;99.90;;;;;;5074407;28;20697;-46
2021/12/10 01:40:36;;;;;;;9.23;2.80;;;4.10;99.90;;;;;;5074349;28;20621;-45
2021/12/10 01:43:06;;;;;;;8.85;3.03;;;4.10;99.90;;;;;;5074429;28;20186;-46
2021/12/10 01:45:44;;;;;;;8.27;2.30;;;4.10;99.90;;;;;;5074440;28;20170;-46
2021/12/10 01:48:14;;;;;;;6.50;2.85;;;4.20;99.90;;;;;;5074300;28;20216;-45
2021/12/10 01:50:40;;;;;;;7.85;2.78;;;4.20;99.90;;;;;;5074104;28;20170;-46
2021/12/10 01:53:10;;;;;;;2.70;2.05;;;4.20;99.90;;;;;;5074073;28;20536;-45
2021/12/10 01:55:40;;;;;;;8.63;2.50;;;4.20;99.90;;;;;;5074026;28;20554;-45
2021/12/10 01:58:09;;;;;;;4.45;3.08;;;4.20;99.90;;;;;;5074205;28;20194;-45
2021/12/10 02:00:38;;;;;;;5.82;2.42;;;4.20;99.90;;;;;;5073943;28;20162;-46
2021/12/10 02:03:04;;;;;;;7.88;3.13;;;4.10;99.90;;;;;;5072639;28;20177;-45
2021/12/10 02:05:29;;;;;;;9.23;2.78;;;4.10;99.90;;;;;;5072474;28;20557;-45
2021/12/10 02:07:55;;;;;;;11.85;3.65;;;4.10;99.90;;;;;;5074001;28;20194;-45
2021/12/10 02:10:23;;;;;;;8.77;2.65;;;4.10;99.90;;;;;;5073576;28;20214;-45
2021/12/10 02:12:49;;;;;;;8.38;3.42;;;4.10;99.90;;;;;;5073869;28;20249;-45
2021/12/10 02:15:15;;;;;;;14.38;2.78;;;4.10;99.90;;;;;;5073734;28;20683;-45
2021/12/10 02:17:46;;;;;;;9.77;2.90;;;4.10;99.90;;;;;;5073440;28;20543;-45
2021/12/10 02:20:16;;;;;;;12.95;2.85;;;4.10;99.90;;;;;;5073707;28;20177;-45
2021/12/10 02:22:44;;;;;;;5.97;2.22;;;4.10;99.90;;;;;;5073457;28;20646;-45
2021/12/10 02:25:10;;;;;;;4.93;2.42;;;4.10;99.90;;;;;;5073390;28;20672;-45
2021/12/10 02:27:36;;;;;;;7.63;2.50;;;4.00;99.90;;;;;;5073305;28;20259;-45
2021/12/10 02:30:06;;;;;;;8.95;2.30;;;4.10;99.90;;;;;;5073309;28;20174;-45
2021/12/10 02:32:32;;;;;;;8.38;2.80;;;4.00;99.90;;;;;;5073251;28;20205;-45
2021/12/10 02:34:57;;;;;;;5.68;2.40;;;4.00;99.90;;;;;;5073142;28;20170;-45
2021/12/10 02:37:24;;;;;;;7.90;2.85;;;4.00;99.90;;;;;;5073486;28;20644;-46
2021/12/10 02:39:50;;;;;;;4.35;2.40;;;4.00;99.90;;;;;;5073032;28;20174;-45
2021/12/10 02:42:15;;;;;;;9.25;2.92;;;4.00;99.90;;;;;;5072192;28;20513;-46
2021/12/10 02:44:41;;;;;;;10.50;2.90;;;4.00;99.90;;;;;;5073218;28;20174;-45
2021/12/10 02:47:07;;;;;;;8.88;2.88;;;3.90;99.90;;;;;;5073166;28;20633;-45
2021/12/10 02:49:33;;;;;;;11.60;3.17;;;3.90;99.90;;;;;;5072869;28;20546;-45
2021/12/10 02:51:59;;;;;;;13.35;4.28;;;3.90;99.90;;;;;;5072948;28;20182;-46
2021/12/10 02:54:33;;;;;;;5.55;2.83;;;3.80;99.90;;;;;;5073098;28;20583;-45
2021/12/10 02:57:03;;;;;;;7.50;2.30;;;3.80;99.90;;;;;;5073004;28;20180;-44
2021/12/10 02:59:29;;;;;;;9.15;3.05;;;3.70;99.90;;;;;;5072844;28;20630;-45
2021/12/10 03:01:55;;;;;;;3.60;2.30;;;3.80;99.90;;;;;;5073210;28;20169;-45
2021/12/10 03:04:21;;;;;;;6.57;2.25;;;3.80;99.90;;;;;;5072834;28;20177;-44
2021/12/10 03:06:52;;;;;;;4.30;2.13;;;3.80;99.90;;;;;;5072846;28;20219;-46
2021/12/10 03:09:19;;;;;;;9.02;2.95;;;3.70;99.90;;;;;;5072318;28;20222;-46
2021/12/10 03:11:49;;;;;;;12.55;2.95;;;3.70;99.90;;;;;;5072509;28;20158;-46
2021/12/10 03:14:21;;;;;;;6.90;2.03;;;3.70;99.90;;;;;;5072737;28;20215;-46
2021/12/10 03:16:48;;;;;;;11.23;3.20;;;3.80;99.90;;;;;;5072600;28;20171;-45
2021/12/10 03:19:14;;;;;;;6.25;2.10;;;3.70;99.90;;;;;;5072705;28;20178;-45
2021/12/10 03:21:44;;;;;;;6.13;2.70;;;3.80;99.90;;;;;;5072328;28;20652;-46
2021/12/10 03:24:17;;;;;;;6.43;2.30;;;3.80;99.90;;;;;;5072541;28;20199;-45
2021/12/10 03:26:42;;;;;;;4.90;2.20;;;3.80;99.90;;;;;;5072258;28;20212;-46
2021/12/10 03:29:09;;;;;;;8.20;1.95;;;3.80;99.90;;;;;;5072179;28;20241;-46
2021/12/10 03:31:35;;;;;;;11.68;2.53;;;3.80;99.90;;;;;;5072283;28;20625;-46
2021/12/10 03:34:01;;;;;;;8.73;2.20;;;3.80;99.90;;;;;;5072128;28;20634;-46
2021/12/10 03:36:27;;;;;;;5.22;1.52;;;3.80;99.90;;;;;;5072108;28;20506;-45
2021/12/10 03:38:54;;;;;;;5.60;1.77;;;3.80;99.90;;;;;;5072388;28;20184;-46
2021/12/10 03:41:19;;;;;;;5.57;2.10;;;3.80;99.90;;;;;;5071941;28;20165;-46
2021/12/10 03:43:49;;;;;;;7.85;1.92;;;3.80;99.90;;;;;;5072004;28;20170;-47
2021/12/10 03:46:16;;;;;;;5.90;2.20;;;3.80;99.90;;;;;;5072203;28;20257;-46
2021/12/10 03:48:45;;;;;;;8.38;1.92;;;3.80;99.90;;;;;;5071932;28;20704;-46
2021/12/10 03:51:15;;;;;;;3.45;1.65;;;3.80;99.90;;;;;;5072240;28;20169;-46
2021/12/10 03:53:41;;;;;;;4.43;2.33;;;3.80;99.90;;;;;;5071737;28;20264;-45
2021/12/10 03:56:11;;;;;;;9.75;2.00;;;3.90;99.90;;;;;;5071992;28;20208;-45
2021/12/10 03:58:37;;;;;;;7.22;2.33;;;3.90;99.90;;;;;;5071960;28;20162;-45
2021/12/10 04:01:05;;;;;;;5.00;2.35;;;3.90;99.90;;;;;;5071841;28;20166;-46
2021/12/10 04:03:32;;;;;;;4.10;1.98;;;4.00;99.90;;;;;;5071797;28;20181;-45
2021/12/10 04:05:57;;;;;;;7.90;2.13;;;4.00;99.90;;;;;;5071805;28;20214;-45
2021/12/10 04:08:24;;;;;;;5.70;1.98;;;4.00;99.90;;;;;;5072021;28;20288;-46
2021/12/10 04:10:51;;;;;;;8.00;1.85;;;4.10;99.90;;;;;;5071609;28;20213;-45
2021/12/10 04:13:18;;;;;;;7.45;1.60;;;4.00;99.90;;;;;;5071765;28;20162;-46
2021/12/10 04:15:44;;;;;;;4.95;1.73;;;4.10;99.90;;;;;;5071942;28;20583;-45
2021/12/10 04:18:11;;;;;;;6.15;1.90;;;4.10;99.90;;;;;;5071682;28;20642;-45
2021/12/10 04:20:37;;;;;;;12.32;2.53;;;4.10;99.90;;;;;;5071717;28;20204;-45
2021/12/10 04:23:06;;;;;;;5.97;1.90;;;4.10;99.90;;;;;;5071628;28;20247;-45
2021/12/10 04:25:32;;;;;;;6.35;2.10;;;4.10;99.90;;;;;;5071647;28;20678;-45
2021/12/10 04:28:01;;;;;;;6.70;2.55;;;4.10;99.90;;;;;;5071505;28;20499;-44
2021/12/10 04:30:29;;;;;;;4.43;1.98;;;4.10;99.90;;;;;;5071633;28;20166;-45
2021/12/10 04:32:54;;;;;;;6.97;2.75;;;4.10;99.90;;;;;;5072087;28;20529;-45
2021/12/10 04:35:20;;;;;;;4.90;1.67;;;4.00;99.90;;;;;;5071537;28;20245;-45
2021/12/10 04:37:49;;;;;;;12.30;2.20;;;4.10;99.90;;;;;;5071617;28;20960;-45
2021/12/10 04:40:18;;;;;;;6.85;2.30;;;4.00;99.90;;;;;;5071552;28;20166;-45
2021/12/10 04:42:44;;;;;;;9.52;2.30;;;4.00;99.90;;;;;;5070199;28;20191;-46
2021/12/10 04:45:12;;;;;;;6.78;2.17;;;4.00;99.90;;;;;;5071539;28;20170;-45
2021/12/10 04:47:38;;;;;;;4.93;1.80;;;4.00;99.90;;;;;;5071642;28;20194;-45
2021/12/10 04:50:06;;;;;;;5.28;2.35;;;4.00;99.90;;;;;;5071482;28;20215;-45
2021/12/10 04:52:34;;;;;;;5.45;1.80;;;3.90;99.90;;;;;;5071364;28;20245;-45
2021/12/10 04:55:00;;;;;;;5.53;2.20;;;3.90;99.90;;;;;;5071572;28;20243;-45
2021/12/10 04:57:26;;;;;;;5.35;1.98;;;4.00;99.90;;;;;;5071864;28;20582;-45
2021/12/10 04:59:52;;;;;;;10.48;2.10;;;3.90;99.90;;;;;;5071616;28;20166;-46
2021/12/10 05:02:18;;;;;;;7.53;2.13;;;3.90;99.90;;;;;;5071540;28;20171;-45
2021/12/10 05:04:46;;;;;;;6.50;1.98;;;3.90;99.90;;;;;;5072908;28;20170;-45
2021/12/10 05:07:14;;;;;;;5.00;1.98;;;3.90;99.90;;;;;;5074836;28;20625;-45
2021/12/10 05:09:40;;;;;;;6.75;1.85;;;4.50;99.90;;;;;;5074687;28;20226;-45
2021/12/10 05:12:07;;;;;;;9.13;1.95;;;3.80;99.90;;;;;;5074738;28;20524;-45
2021/12/10 05:14:33;;;;;;;10.60;3.53;;;3.80;99.90;;;;;;5074655;28;20239;-45
2021/12/10 05:17:03;;;;;;;7.75;2.20;;;3.80;99.90;;;;;;5074847;28;20573;-45
2021/12/10 05:19:29;;;;;;;8.13;2.50;;;3.80;99.90;;;;;;5074594;28;20622;-45
2021/12/10 05:21:59;;;;;;;4.70;2.38;;;3.80;99.90;;;;;;5074940;28;20179;-45
2021/12/10 05:24:26;;;;;;;8.73;2.70;;;3.80;99.90;;;;;;5075203;28;20248;-46
2021/12/10 05:26:52;;;;;;;6.65;3.05;;;3.80;99.90;;;;;;5074872;28;20181;-45
2021/12/10 05:29:18;;;;;;;5.55;2.47;;;3.70;99.90;;;;;;5074402;28;20251;-45
2021/12/10 05:31:45;;;;;;;8.38;3.20;;;3.70;99.90;;;;;;5074430;28;20248;-46
2021/12/10 05:34:12;;;;;;;10.75;3.25;;;3.70;99.90;;;;;;5074461;28;20170;-45
2021/12/10 05:36:37;;;;;;;14.38;3.83;;;3.70;99.90;;;;;;5074440;28;20162;-45
2021/12/10 05:39:05;;;;;;;9.25;3.33;;;3.70;99.90;;;;;;5074270;28;20170;-45
2021/12/10 05:41:31;;;;;;;5.13;3.17;;;3.70;99.90;;;;;;5074298;28;20321;-45
2021/12/10 05:43:57;;;;;;;14.07;3.22;;;3.70;99.90;;;;;;5074401;28;20699;-45
2021/12/10 05:46:23;;;;;;;9.60;3.50;;;3.70;99.90;;;;;;5074524;28;20166;-45
2021/12/10 05:48:49;;;;;;;11.68;3.53;;;3.70;99.90;;;;;;5073780;28;20560;-45
2021/12/10 05:51:15;;;;;;;8.32;2.90;;;3.70;99.90;;;;;;5074136;28;20162;-45
2021/12/10 05:53:41;;;;;;;8.15;3.03;;;3.60;99.90;;;;;;5074041;28;20216;-45
2021/12/10 05:56:07;;;;;;;7.13;3.78;;;3.60;99.90;;;;;;5074262;28;20249;-45
2021/12/10 05:58:33;;;;;;;7.53;4.20;;;3.60;99.90;;;;;;5074001;28;20200;-45
2021/12/10 06:01:05;;;;;;;11.45;4.80;;;3.60;99.90;;;;;;5073916;28;20177;-46
2021/12/10 06:03:33;;;;;;;7.35;3.53;;;3.60;99.90;;;;;;5073878;28;20162;-45
2021/12/10 06:06:00;;;;;;;5.40;3.17;;;3.50;99.90;;;;;;5073961;28;20253;-45
2021/12/10 06:08:26;;;;;;;9.05;3.00;;;3.50;99.90;;;;;;5073850;28;20217;-46
2021/12/10 06:10:54;;;;;;;10.48;4.25;;;3.50;99.90;;;;;;5073795;28;20214;-45
2021/12/10 06:13:19;;;;;;;11.05;4.10;;;3.50;99.90;;;;;;5073842;28;20253;-46
2021/12/10 06:15:45;;;;;;;8.50;3.88;;;3.50;99.90;;;;;;5072406;28;20681;-47
2021/12/10 06:18:12;;;;;;;14.82;4.70;;;3.40;99.90;;;;;;5073850;28;20633;-47
2021/12/10 06:20:42;;;;;;;8.13;4.47;;;3.40;99.90;;;;;;5073635;28;20174;-46
2021/12/10 06:23:08;;;;;;;13.68;4.78;;;3.40;99.90;;;;;;5073276;28;20626;-46
2021/12/10 06:25:34;;;;;;;12.65;5.20;;;3.40;99.90;;;;;;5073600;28;20174;-47
2021/12/10 06:28:02;;;;;;;12.40;4.18;;;3.40;99.90;;;;;;5072267;28;20232;-45
2021/12/10 06:30:32;;;;;;;7.40;3.63;;;3.40;99.90;;;;;;5073466;28;20177;-46
2021/12/10 06:33:00;;;;;;;14.98;5.00;;;3.30;99.90;;;;;;5073211;28;20613;-46
2021/12/10 06:35:28;;;;;;;18.38;8.02;;;3.40;99.90;;;;;;5073426;28;20166;-45
2021/12/10 06:37:54;;;;;;;12.20;6.10;;;3.30;99.90;;;;;;5073350;28;20559;-45
2021/12/10 06:40:23;;;;;;;18.50;8.68;;;3.40;99.90;;;;;;5073015;28;20197;-45
2021/12/10 06:42:50;;;;;;;16.65;7.60;;;3.30;99.90;;;;;;5072851;28;20654;-46
2021/12/10 06:45:20;;;;;;;17.63;7.72;;;3.30;99.90;;;;;;5072918;28;20162;-45
2021/12/10 06:47:48;;;;;;;17.55;7.70;;;3.40;99.90;;;;;;5073037;28;20551;-46
2021/12/10 06:50:19;;;;;;;12.70;5.38;;;3.30;99.90;;;;;;5072853;28;20516;-45
2021/12/10 06:52:45;;;;;;;20.95;9.20;;;3.30;99.90;;;;;;5072824;28;20166;-45
2021/12/10 06:55:11;;;;;;;15.10;6.43;;;3.30;99.90;;;;;;5072831;28;20265;-45
2021/12/10 06:57:37;;;;;;;16.50;7.57;;;3.30;99.90;;;;;;5073064;28;20227;-45
2021/12/10 07:00:10;;;;;;;21.42;10.30;;;3.40;99.90;;;;;;5072967;28;20174;-45
2021/12/10 07:02:36;;;;;;;14.88;6.93;;;3.40;99.90;;;;;;5072893;28;20231;-44
2021/12/10 07:05:03;;;;;;;16.75;6.03;;;3.30;99.90;;;;;;5072663;28;20716;-45
2021/12/10 07:07:29;;;;;;;13.70;5.07;;;3.40;99.90;;;;;;5072478;28;20299;-45
2021/12/10 07:09:55;;;;;;;15.68;7.45;;;3.40;99.90;;;;;;5072706;28;20220;-45
2021/12/10 07:12:20;;;;;;;17.30;7.45;;;3.40;99.90;;;;;;5072492;28;20174;-45
2021/12/10 07:14:46;;;;;;;9.50;4.53;;;3.40;99.90;;;;;;5072424;28;20194;-45
2021/12/10 07:17:12;;;;;;;11.85;6.70;;;3.40;99.90;;;;;;5072570;28;20174;-46
2021/12/10 07:19:37;;;;;;;6.90;4.47;;;3.30;99.90;;;;;;5072372;28;20181;-46
2021/12/10 07:22:04;;;;;;;12.45;5.40;;;3.40;99.90;;;;;;5072405;28;20170;-45
2021/12/10 07:24:29;;;;;;;13.32;6.53;;;3.40;99.90;;;;;;5072402;28;20174;-45
2021/12/10 07:26:55;;;;;;;17.67;4.85;;;3.40;99.90;;;;;;5072162;28;20158;-45
2021/12/10 07:29:21;;;;;;;6.32;3.28;;;3.50;99.90;;;;;;5072373;28;20212;-45
2021/12/10 07:31:47;;;;;;;14.00;4.38;;;3.50;99.90;;;;;;5072226;28;20237;-45
2021/12/10 07:34:13;;;;;;;13.07;4.80;;;3.50;99.90;;;;;;5072161;28;20177;-45
2021/12/10 07:36:39;;;;;;;13.18;5.50;;;3.50;99.90;;;;;;5072147;28;20241;-45
2021/12/10 07:39:07;;;;;;;14.35;4.72;;;3.60;99.90;;;;;;5072165;28;20173;-47
2021/12/10 07:41:33;;;;;;;12.77;2.88;;;3.50;99.90;;;;;;5072272;28;20224;-44
2021/12/10 07:43:59;;;;;;;6.80;3.35;;;3.60;99.90;;;;;;5071965;28;20178;-45
2021/12/10 07:46:28;;;;;;;12.02;3.25;;;3.60;99.90;;;;;;5072466;28;20188;-45
2021/12/10 07:48:54;;;;;;;4.15;2.40;;;3.60;99.90;;;;;;5072434;28;20209;-44
2021/12/10 07:51:26;;;;;;;15.63;2.58;;;3.60;99.90;;;;;;5071820;28;20248;-45
2021/12/10 07:53:55;;;;;;;5.20;2.17;;;3.70;99.90;;;;;;5072187;28;20538;-45
2021/12/10 07:56:20;;;;;;;6.10;2.13;;;3.70;99.90;;;;;;5071848;28;20629;-45
2021/12/10 07:58:46;;;;;;;8.02;2.78;;;3.70;99.90;;;;;;5071865;28;20166;-45
2021/12/10 08:01:19;;;;;;;15.07;3.25;;;3.70;99.90;;;;;;5071835;28;20162;-45
2021/12/10 08:03:46;;;;;;;7.55;2.50;;;3.70;99.90;;;;;;5071814;28;20169;-45
2021/12/10 08:06:12;;;;;;;6.13;2.85;;;3.70;99.90;;;;;;5071999;28;20172;-45
2021/12/10 08:08:38;;;;;;;6.43;2.00;;;3.80;99.90;;;;;;5071408;28;20292;-45
2021/12/10 08:11:04;;;;;;;8.73;2.85;;;3.80;99.90;;;;;;5071791;28;20170;-45
2021/12/10 08:13:30;;;;;;;9.98;2.53;;;3.90;99.90;;;;;;5071743;28;20162;-45
2021/12/10 08:15:56;;;;;;;9.98;2.85;;;3.90;99.90;;;;;;5071698;28;20507;-45
2021/12/10 08:18:22;;;;;;;8.25;3.00;;;3.90;99.90;;;;;;5071787;28;20185;-45
2021/12/10 08:20:48;;;;;;;8.32;3.60;;;3.90;99.90;;;;;;5071552;28;20166;-46
2021/12/10 08:23:14;;;;;;;14.32;4.30;;;4.00;99.90;;;;;;5071628;28;20174;-46
2021/12/10 08:25:40;;;;;;;14.68;5.05;;;4.00;99.90;;;;;;5071713;28;20200;-45
2021/12/10 08:28:06;;;;;;;14.43;4.55;;;4.00;99.90;;;;;;5071471;28;20198;-43
2021/12/10 08:30:33;;;;;;;14.80;4.00;;;4.10;99.90;;;;;;5071310;28;20165;-43
2021/12/10 08:33:00;;;;;;;19.58;5.30;;;4.10;99.90;;;;;;5071414;28;20235;-48
2021/12/10 08:35:29;;;;;;;14.50;5.90;;;4.10;99.90;;;;;;5071925;28;20170;-47
2021/12/10 08:37:58;;;;;;;13.65;3.97;;;4.10;99.90;;;;;;5071921;28;20188;-46
2021/12/10 08:40:29;;;;;;;9.85;3.88;;;4.10;99.90;;;;;;5074443;28;20169;-45
2021/12/10 08:42:54;;;;;;;13.50;4.45;;;4.10;99.90;;;;;;5075433;28;20162;-45
2021/12/10 08:45:22;;;;;;;11.00;3.95;;;4.20;99.90;;;;;;5075117;28;20212;-42
2021/12/10 08:47:49;;;;;;;14.48;4.40;;;4.20;99.90;;;;;;5075052;28;20194;-44
2021/12/10 08:50:18;;;;;;;12.23;4.00;;;4.20;99.90;;;;;;5075016;28;20166;-44
2021/12/10 08:52:44;;;;;;;12.07;3.78;;;4.20;99.90;;;;;;5074812;28;20158;-44
2021/12/10 08:55:11;;;;;;;21.45;6.75;;;4.20;99.90;;;;;;5073650;28;20521;-44
2021/12/10 08:57:38;;;;;;;11.18;4.03;;;4.30;99.90;;;;;;5074798;28;20253;-44
2021/12/10 09:00:06;;;;;;;9.73;3.42;;;4.20;99.90;;;;;;5074796;28;20166;-45
2021/12/10 09:02:34;;;;;;;7.13;3.08;;;4.30;99.90;;;;;;5074622;28;20538;-45
2021/12/10 09:05:00;;;;;;;10.13;3.97;;;4.30;99.90;;;;;;5074704;28;20652;-44
2021/12/10 09:07:25;;;;;;;11.77;2.92;;;4.30;99.90;;;;;;5074972;28;20170;-39
2021/12/10 09:09:51;;;;;;;11.63;3.65;;;4.30;99.90;;;;;;5074680;28;20229;-41
2021/12/10 09:12:21;;;;;;;9.82;3.97;;;4.30;99.90;;;;;;5074524;28;20162;-45
2021/12/10 09:14:50;;;;;;;10.68;4.18;;;4.30;99.90;;;;;;5074717;28;20174;-44
2021/12/10 09:17:25;;;;;;;8.20;3.40;;;4.30;99.90;;;;;;5074439;28;20249;-45
2021/12/10 09:19:53;;;;;;;12.95;5.43;;;4.30;99.90;;;;;;5074498;28;20165;-45
2021/12/10 09:22:19;;;;;;;9.32;3.85;;;4.40;99.90;;;;;;5074576;28;20166;-45
2021/12/10 09:24:47;;;;;;;10.43;4.80;;;4.40;99.90;;;;;;5074339;28;20200;-43
2021/12/10 09:27:13;;;;;;;11.82;3.90;;;4.40;99.90;;;;;;5073180;28;20177;-45
2021/12/10 09:29:42;;;;;;;8.10;3.90;;;4.40;99.90;;;;;;5074219;28;20206;-47
2021/12/10 09:32:10;;;;;;;14.15;5.28;;;4.40;99.90;;;;;;5074282;28;20158;-45
2021/12/10 09:34:36;;;;;;;12.40;3.97;;;4.40;99.90;;;;;;5074183;28;20220;-45
2021/12/10 09:37:03;;;;;;;9.10;4.18;;;4.40;99.90;;;;;;5074308;28;20162;-46
2021/12/10 09:39:30;;;;;;;6.70;3.38;;;4.40;99.90;;;;;;5074157;28;20170;-45
2021/12/10 09:41:56;;;;;;;14.57;5.07;;;4.40;99.90;;;;;;5073211;28;20193;-45
2021/12/10 09:44:23;;;;;;;11.20;4.40;;;4.50;99.90;;;;;;5074494;28;20637;-45
2021/12/10 09:46:49;;;;;;;6.30;3.10;;;4.50;99.90;;;;;;5074025;28;20506;-45
2021/12/10 09:49:16;;;;;;;17.90;4.65;;;4.50;99.90;;;;;;5073857;28;20198;-46
2021/12/10 09:51:56;;;;;;;11.38;3.70;;;4.50;99.90;;;;;;5073486;28;20633;-45
2021/12/10 09:54:24;;;;;;;10.52;3.65;;;4.60;99.90;;;;;;5074223;28;20177;-45
2021/12/10 09:56:58;;;;;;;8.65;3.63;;;4.50;99.90;;;;;;5073752;28;20170;-45
2021/12/10 09:59:24;;;;;;;7.40;3.28;;;4.60;99.90;;;;;;5074160;28;20625;-44
2021/12/10 10:01:52;;;;;;;7.68;3.67;;;4.60;99.90;;;;;;5073850;28;20578;-43
2021/12/10 10:04:20;;;;;;;8.40;3.63;;;4.60;99.90;;;;;;5073876;28;20505;-45
2021/12/10 10:06:55;;;;;;;6.68;2.88;;;4.60;99.90;;;;;;5073665;28;20181;-42
2021/12/10 10:09:22;;;;;;;6.43;3.03;;;4.60;99.90;;;;;;5073791;28;20233;-43
2021/12/10 10:11:53;;;;;;;6.85;2.45;;;4.60;99.90;;;;;;5073475;28;20555;-43
2021/12/10 10:14:19;;;;;;;6.68;2.55;;;4.60;99.90;;;;;;5073649;28;20180;-43
2021/12/10 10:16:45;;;;;;;6.70;2.97;;;4.50;99.90;;;;;;5073374;28;20162;-43
2021/12/10 10:19:12;;;;;;;4.38;2.22;;;4.50;99.90;;;;;;5073590;28;20633;-43
2021/12/10 10:21:41;;;;;;;7.10;2.65;;;4.50;99.90;;;;;;5073400;28;20656;-43
2021/12/10 10:24:07;;;;;;;4.53;2.20;;;4.30;99.90;;;;;;5073559;28;20174;-43
2021/12/10 10:26:49;;;;;;;11.35;2.83;;;4.40;99.90;;;;;;5073414;28;20248;-43
2021/12/10 10:29:19;;;;;;;5.80;2.05;;;4.40;99.90;;;;;;5073405;28;20263;-43
2021/12/10 10:31:50;;;;;;;9.48;2.92;;;4.30;99.90;;;;;;5073193;28;20248;-43
2021/12/10 10:34:17;;;;;;;10.27;4.38;;;4.30;99.90;;;;;;5073497;28;20178;-43
2021/12/10 10:36:42;;;;;;;10.68;5.97;;;4.40;99.90;;;;;;5073146;28;20181;-43
2021/12/10 10:39:15;;;;;;;7.10;2.72;;;4.50;99.90;;;;;;5073032;28;20228;-43
2021/12/10 10:41:43;;;;;;;6.97;3.13;;;4.50;99.90;;;;;;5071928;28;20234;-43
2021/12/10 10:44:09;;;;;;;12.98;4.75;;;4.50;99.90;;;;;;5073115;28;20166;-43
2021/12/10 10:46:36;;;;;;;7.45;3.95;;;4.50;99.90;;;;;;5072942;28;20645;-44
2021/12/10 10:49:03;;;;;;;12.60;3.88;;;4.50;99.90;;;;;;5072941;28;20221;-43
2021/12/10 10:51:38;;;;;;;19.63;14.23;;;4.60;99.90;;;;;;5072859;28;20158;-43
2021/12/10 10:54:09;;;;;;;4.97;2.85;;;4.70;99.90;;;;;;5072914;28;20185;-43
2021/12/10 10:56:44;;;;;;;7.57;4.47;;;4.70;99.90;;;;;;5072765;28;20166;-43
2021/12/10 10:59:15;;;;;;;8.75;3.58;;;4.60;99.90;;;;;;5072680;28;20641;-43
2021/12/10 11:01:59;;;;;;;6.63;2.33;;;4.70;99.90;;;;;;5072281;28;20166;-43
2021/12/10 11:04:32;;;;;;;7.15;2.53;;;4.70;99.90;;;;;;5072845;28;20506;-43
2021/12/10 11:07:21;;;;;;;7.97;2.53;;;4.80;99.90;;;;;;5072787;28;20275;-44
2021/12/10 11:10:02;;;;;;;4.90;2.72;;;4.80;99.90;;;;;;5072467;28;20221;-43
2021/12/10 11:12:34;;;;;;;7.00;2.50;;;4.80;99.90;;;;;;5072734;28;20192;-43
2021/12/10 11:15:05;;;;;;;7.95;3.30;;;4.90;99.90;;;;;;5072505;28;20200;-43
2021/12/10 11:17:49;;;;;;;6.72;2.78;;;4.80;99.90;;;;;;5072439;28;20170;-43
2021/12/10 11:20:25;;;;;;;8.88;3.55;;;4.80;99.90;;;;;;5072370;28;20174;-43
2021/12/10 11:22:57;;;;;;;9.63;4.05;;;4.90;99.90;;;;;;5072625;28;20195;-43
2021/12/10 11:25:26;;;;;;;8.75;3.60;;;4.90;99.90;;;;;;5072780;28;20533;-43
2021/12/10 11:28:21;;;;;;;7.40;2.90;;;4.90;99.90;;;;;;5072756;28;20174;-43
2021/12/10 11:31:15;;;;;;;4.45;2.38;;;4.90;99.90;;;;;;5068206;28;20186;-43
2021/12/10 11:33:49;;;;;;;6.75;2.45;;;4.90;99.90;;;;;;5071264;28;20174;-43
2021/12/10 11:36:21;;;;;;;7.22;2.65;;;4.90;99.90;;;;;;5072015;28;20185;-43
2021/12/10 11:38:51;;;;;;;11.60;4.35;;;5.00;99.90;;;;;;5072269;28;20161;-43
2021/12/10 11:41:23;;;;;;;11.02;3.45;;;5.00;99.90;;;;;;5072272;28;20182;-43
2021/12/10 11:46:46;;;;;;;7.43;2.50;;;5.00;99.90;;;;;;5072253;28;20253;-43
2021/12/10 11:49:26;;;;;;;9.15;3.10;;;5.00;99.90;;;;;;5072071;28;20201;-43
2021/12/10 11:52:04;;;;;;;4.35;2.40;;;5.00;99.90;;;;;;5072217;28;20676;-43
2021/12/10 11:54:36;;;;;;;4.03;2.75;;;5.00;99.90;;;;;;5071838;28;20522;-44
2021/12/10 11:57:19;;;;;;;8.98;3.50;;;5.00;99.90;;;;;;5071890;28;20158;-42
2021/12/10 11:59:48;;;;;;;7.72;3.13;;;5.10;99.90;;;;;;5071905;28;20241;-43
2021/12/10 12:02:21;;;;;;;5.47;2.75;;;5.10;99.90;;;;;;5072047;28;20193;-43
2021/12/10 12:04:50;;;;;;;8.15;3.58;;;5.10;99.90;;;;;;5071780;28;20253;-43
2021/12/10 12:07:26;;;;;;;9.77;2.60;;;5.00;99.90;;;;;;5071736;28;20176;-43
2021/12/10 12:10:25;;;;;;;13.68;3.28;;;5.00;99.90;;;;;;5070493;28;20249;-44
2021/12/10 12:13:04;;;;;;;14.93;6.85;;;5.00;99.90;;;;;;5072519;28;20533;-43
2021/12/10 12:15:37;;;;;;;16.52;3.78;;;5.60;99.90;;;;;;5075906;28;20170;-43
2021/12/10 12:18:29;;;;;;;9.60;3.95;;;5.00;99.90;;;;;;5075875;28;20189;-43
2021/12/10 12:20:57;;;;;;;8.00;3.78;;;5.00;99.90;;;;;;5076440;28;20219;-43
2021/12/10 12:26:21;;;;;;;13.40;3.00;;;5.10;99.90;;;;;;5075800;28;20181;-44
2021/12/10 12:28:54;;;;;;;9.85;2.45;;;5.00;99.90;;;;;;5075646;28;20228;-43
2021/12/10 12:31:29;;;;;;;8.95;2.90;;;5.10;99.90;;;;;;5075849;28;20194;-43
2021/12/10 12:33:57;;;;;;;7.60;3.17;;;5.10;99.90;;;;;;5075873;28;20251;-43
2021/12/10 12:36:30;;;;;;;5.35;2.63;;;5.10;99.90;;;;;;5075876;28;20241;-43
2021/12/10 12:38:56;;;;;;;6.95;3.20;;;5.10;99.90;;;;;;5075815;28;20187;-42
2021/12/10 12:41:31;;;;;;;7.80;4.68;;;5.10;99.90;;;;;;5075691;28;20166;-43
2021/12/10 12:44:20;;;;;;;7.38;3.70;;;5.10;99.90;;;;;;5075371;28;20643;-43
2021/12/10 12:47:15;;;;;;;5.40;2.90;;;5.00;99.90;;;;;;5075340;28;20245;-43
2021/12/10 12:49:49;;;;;;;12.52;3.72;;;5.00;99.90;;;;;;5075046;28;20733;-43
2021/12/10 12:52:25;;;;;;;6.32;2.83;;;5.00;99.90;;;;;;5075128;28;20218;-43
2021/12/10 12:55:22;;;;;;;7.63;2.90;;;5.00;99.90;;;;;;5075635;28;20216;-43
2021/12/10 12:57:53;;;;;;;10.48;3.55;;;4.90;99.90;;;;;;5075311;28;20180;-43
2021/12/10 13:00:37;;;;;;;7.78;3.13;;;5.00;99.90;;;;;;5074895;28;20169;-43
2021/12/10 13:03:47;;;;;;;5.97;3.17;;;5.00;99.90;;;;;;5075031;28;20637;-43
2021/12/10 13:06:18;;;;;;;10.05;4.00;;;5.00;99.90;;;;;;5067807;28;20613;-43
2021/12/10 13:08:52;;;;;;;9.02;4.28;;;5.10;99.90;;;;;;5074886;28;20275;-43
2021/12/10 13:11:28;;;;;;;3.97;2.85;;;4.90;99.90;;;;;;5074776;28;20200;-43
2021/12/10 13:14:12;;;;;;;7.43;3.58;;;4.90;99.90;;;;;;5075336;28;20193;-43
2021/12/10 13:16:47;;;;;;;12.00;6.80;;;4.90;99.90;;;;;;5074923;28;20178;-43
2021/12/10 13:19:17;;;;;;;8.13;2.65;;;4.90;99.90;;;;;;5074653;28;20161;-43